Time;durP1;ratioP1;P1;durP2;ratioP2;P2;SDS_P1;SDS_P2;PMS_P1;PMS_P2;Temp;Humidity;BMP_temperature;BMP_pressure;BME280_temperature;BME280_humidity;BME280_pressure;Samples;Min_cycle;Max_cycle;Signal;HPM_P1;HPM_P2
2022/07/07 00:00:59;;;;;;;1.13;0.50;;;;;;;25.34;48.49;100746.97;4934103;29;20093;-70
2022/07/07 00:03:28;;;;;;;0.40;0.40;;;;;;;25.27;48.44;100744.50;4934869;29;20493;-70
2022/07/07 00:05:58;;;;;;;1.17;0.30;;;;;;;25.21;53.95;100759.72;4934349;29;20048;-69
2022/07/07 00:08:27;;;;;;;2.17;0.60;;;;;;;25.10;50.80;100744.13;4933747;29;20102;-69
2022/07/07 00:10:56;;;;;;;0.40;0.30;;;;;;;25.23;49.26;100748.16;4930329;29;20054;-69
2022/07/07 00:13:24;;;;;;;3.92;0.60;;;;;;;25.24;49.68;100754.31;4933349;29;20494;-72
2022/07/07 00:15:53;;;;;;;0.47;0.38;;;;;;;25.22;50.87;100749.06;4926028;29;20558;-72
2022/07/07 00:18:21;;;;;;;2.00;0.32;;;;;;;25.22;51.01;100746.44;4926434;29;20601;-70
2022/07/07 00:20:50;;;;;;;2.05;0.55;;;;;;;25.22;50.11;100740.25;4911946;29;20051;-70
2022/07/07 00:23:20;;;;;;;0.88;0.50;;;;;;;25.22;50.16;100740.25;4930362;29;20103;-72
2022/07/07 00:25:48;;;;;;;0.90;0.30;;;;;;;25.12;49.95;100738.78;4919437;29;20116;-70
2022/07/07 00:28:17;;;;;;;0.28;0.28;;;;;;;25.10;49.18;100746.75;4931533;29;20066;-73
2022/07/07 00:30:45;;;;;;;0.93;0.28;;;;;;;25.15;48.51;100738.69;4923113;29;20048;-71
2022/07/07 00:33:14;;;;;;;0.38;0.22;;;;;;;25.22;49.37;100729.66;4922065;29;20486;-70
2022/07/07 00:35:43;;;;;;;0.30;0.20;;;;;;;25.34;49.72;100728.41;4925747;29;20059;-71
2022/07/07 00:38:11;;;;;;;2.25;0.40;;;;;;;25.38;49.41;100732.69;4933413;29;20120;-71
2022/07/07 00:40:42;;;;;;;0.20;0.20;;;;;;;25.42;49.69;100729.88;4934852;29;20047;-70
2022/07/07 00:43:10;;;;;;;0.50;0.30;;;;;;;25.50;48.62;100730.50;4936999;29;20038;-71
2022/07/07 00:45:39;;;;;;;0.43;0.10;;;;;;;25.54;47.72;100731.28;4937859;29;20048;-71
2022/07/07 00:48:09;;;;;;;0.50;0.20;;;;;;;25.48;48.62;100726.19;4934307;28;20122;-71
2022/07/07 00:50:38;;;;;;;0.30;0.20;;;;;;;25.37;48.01;100729.16;4932830;29;20099;-71
2022/07/07 00:53:07;;;;;;;1.35;0.40;;;;;;;25.32;48.94;100724.97;4934649;29;20087;-71
2022/07/07 00:55:35;;;;;;;2.78;0.40;;;;;;;25.32;48.78;100733.75;4934808;29;20048;-73
2022/07/07 00:58:06;;;;;;;2.25;0.30;;;;;;;25.31;48.51;100732.00;4932017;29;20489;-71
2022/07/07 01:00:35;;;;;;;1.00;0.30;;;;;;;25.32;48.42;100735.53;4932880;29;20051;-71
2022/07/07 01:03:04;;;;;;;0.10;0.10;;;;;;;25.32;48.15;100731.13;4930453;29;20108;-71
2022/07/07 01:05:34;;;;;;;0.30;0.15;;;;;;;25.36;47.01;100731.84;4932907;29;20546;-72
2022/07/07 01:08:04;;;;;;;0.93;0.45;;;;;;;25.38;47.98;100736.22;4931646;29;20526;-72
2022/07/07 01:10:33;;;;;;;5.28;0.30;;;;;;;25.40;47.09;100736.16;4932786;29;20225;-74
2022/07/07 01:13:06;;;;;;;3.78;0.38;;;;;;;25.38;46.82;100737.97;4934063;29;20044;-72
2022/07/07 01:15:34;;;;;;;0.65;0.30;;;;;;;25.22;46.02;100740.25;4932672;29;20124;-72
2022/07/07 01:18:03;;;;;;;1.75;0.55;;;;;;;25.13;47.04;100745.78;4926074;29;20079;-73
2022/07/07 01:20:32;;;;;;;2.63;0.20;;;;;;;25.10;48.03;100738.81;4928666;29;20103;-71
2022/07/07 01:23:02;;;;;;;4.35;0.50;;;;;;;25.13;48.31;100735.22;4927271;29;20048;-72
2022/07/07 01:25:31;;;;;;;2.60;0.30;;;;;;;25.15;47.95;100746.63;4927372;29;20067;-70
2022/07/07 01:28:00;;;;;;;0.93;0.30;;;;;;;25.17;48.12;100750.94;4930490;29;20107;-72
2022/07/07 01:30:29;;;;;;;0.52;0.30;;;;;;;25.15;48.17;100752.81;4927913;29;20059;-73
2022/07/07 01:32:57;;;;;;;0.20;0.20;;;;;;;25.08;48.48;100753.88;4922920;29;20040;-70
2022/07/07 01:35:26;;;;;;;0.73;0.20;;;;;;;25.03;48.28;100753.16;4932642;29;20550;-71
2022/07/07 01:37:54;;;;;;;0.35;0.22;;;;;;;24.95;48.39;100758.69;4931603;29;20107;-70
2022/07/07 01:40:25;;;;;;;0.22;0.20;;;;;;;24.88;48.17;100752.72;4932016;29;20051;-70
2022/07/07 01:42:53;;;;;;;0.20;0.20;;;;;;;24.83;49.17;100759.94;4930919;29;20115;-70
2022/07/07 01:45:22;;;;;;;1.45;0.30;;;;;;;24.84;48.67;100761.66;4933208;29;20545;-73
2022/07/07 01:47:51;;;;;;;0.50;0.20;;;;;;;24.83;48.74;100766.97;4935876;28;20106;-72
2022/07/07 01:50:20;;;;;;;0.30;0.13;;;;;;;24.80;49.45;100775.88;4939672;29;20110;-71
2022/07/07 01:52:49;;;;;;;0.60;0.30;;;;;;;24.75;49.45;100775.16;4929566;29;20050;-72
2022/07/07 01:55:17;;;;;;;0.57;0.30;;;;;;;24.72;48.64;100777.91;4931675;29;20051;-72
2022/07/07 01:57:47;;;;;;;1.55;0.30;;;;;;;24.66;48.65;100784.22;4930469;29;20059;-73
2022/07/07 02:00:16;;;;;;;0.28;0.28;;;;;;;24.61;49.04;100775.56;4925896;29;20047;-72
2022/07/07 02:02:45;;;;;;;0.47;0.30;;;;;;;24.56;49.46;100773.97;4927090;29;20051;-71
2022/07/07 02:05:13;;;;;;;0.45;0.25;;;;;;;24.45;49.52;100777.72;4931875;29;20055;-69
2022/07/07 02:07:42;;;;;;;1.83;0.30;;;;;;;24.38;49.22;100776.16;4932368;29;20055;-71
2022/07/07 02:10:10;;;;;;;1.10;0.30;;;;;;;24.31;49.42;100779.03;4931784;29;20051;-70
2022/07/07 02:12:39;;;;;;;2.00;0.30;;;;;;;24.22;49.92;100786.28;4922066;29;20095;-72
2022/07/07 02:15:10;;;;;;;0.22;0.15;;;;;;;24.12;49.71;100778.63;4935369;29;20048;-69
2022/07/07 02:17:39;;;;;;;0.30;0.20;;;;;;;24.06;50.64;100784.97;4930215;29;20043;-68
2022/07/07 02:20:08;;;;;;;0.30;0.30;;;;;;;24.00;51.03;100783.31;4934371;29;20043;-70
2022/07/07 02:22:37;;;;;;;0.88;0.50;;;;;;;23.94;50.98;100788.78;4925688;29;20051;-70
2022/07/07 02:25:06;;;;;;;0.80;0.40;;;;;;;23.87;51.20;100784.56;4930971;29;20064;-69
2022/07/07 02:27:41;;;;;;;0.57;0.30;;;;;;;23.85;51.82;100789.03;4931567;29;20056;-70
2022/07/07 02:30:12;;;;;;;0.95;0.35;;;;;;;23.83;51.79;100781.13;4930796;29;20522;-70
2022/07/07 02:32:40;;;;;;;0.80;0.35;;;;;;;23.80;51.17;100780.31;4930871;29;20562;-70
2022/07/07 02:35:09;;;;;;;0.98;0.40;;;;;;;23.74;51.42;100780.47;4937004;29;20048;-71
2022/07/07 02:37:38;;;;;;;0.40;0.30;;;;;;;23.69;51.19;100777.06;4931553;29;20044;-68
2022/07/07 02:40:13;;;;;;;0.50;0.40;;;;;;;23.61;51.36;100774.59;4936768;29;20043;-69
2022/07/07 02:42:41;;;;;;;0.82;0.32;;;;;;;23.52;51.57;100780.97;4923758;29;20043;-69
2022/07/07 02:45:12;;;;;;;1.02;0.40;;;;;;;23.46;51.38;100786.41;4942020;29;20059;-69
2022/07/07 02:47:43;;;;;;;0.43;0.30;;;;;;;23.41;51.84;100783.88;4920702;28;20063;-69
2022/07/07 02:50:12;;;;;;;0.45;0.25;;;;;;;23.37;52.57;100787.47;4931485;29;20103;-70
2022/07/07 02:52:40;;;;;;;0.38;0.30;;;;;;;23.33;51.87;100795.50;4930437;29;20055;-69
2022/07/07 02:55:10;;;;;;;1.25;0.45;;;;;;;23.28;52.13;100786.84;4920429;29;20099;-71
2022/07/07 02:57:38;;;;;;;0.40;0.30;;;;;;;23.24;52.46;100793.06;4930958;29;20116;-71
2022/07/07 03:00:08;;;;;;;0.73;0.30;;;;;;;23.20;52.04;100795.78;4930635;29;20044;-70
2022/07/07 03:02:39;;;;;;;0.70;0.38;;;;;;;23.17;52.12;100800.25;4930845;29;20048;-69
2022/07/07 03:05:08;;;;;;;0.40;0.30;;;;;;;23.14;51.99;100800.34;4931134;29;20103;-71
2022/07/07 03:07:37;;;;;;;0.45;0.20;;;;;;;23.08;51.89;100809.22;4931461;29;20059;-69
2022/07/07 03:10:06;;;;;;;0.30;0.20;;;;;;;23.05;52.29;100811.94;4929919;29;20102;-70
2022/07/07 03:12:35;;;;;;;1.95;0.30;;;;;;;22.99;52.83;100812.94;4934910;29;20048;-69
2022/07/07 03:15:03;;;;;;;1.27;0.40;;;;;;;22.95;52.71;100816.53;4930699;29;20048;-69
2022/07/07 03:17:32;;;;;;;1.17;0.40;;;;;;;22.87;53.26;100815.81;4930598;29;20502;-69
2022/07/07 03:20:02;;;;;;;0.43;0.30;;;;;;;22.83;53.63;100815.91;4930663;29;20512;-68
2022/07/07 03:22:30;;;;;;;0.65;0.40;;;;;;;22.76;53.99;100818.66;4931940;29;20055;-68
2022/07/07 03:24:59;;;;;;;1.70;0.77;;;;;;;22.71;54.80;100820.50;4923749;29;20052;-70
2022/07/07 03:27:27;;;;;;;4.63;0.70;;;;;;;22.64;54.44;100815.41;4926679;29;20106;-69
2022/07/07 03:29:56;;;;;;;2.90;0.98;;;;;;;22.57;54.56;100812.00;4924703;29;20044;-70
2022/07/07 03:32:24;;;;;;;0.45;0.40;;;;;;;22.52;58.17;100811.25;4933230;29;20052;-70
2022/07/07 03:34:53;;;;;;;1.58;0.50;;;;;;;22.45;57.43;100814.84;4928602;29;20095;-70
2022/07/07 03:37:24;;;;;;;1.17;0.60;;;;;;;22.38;57.55;100822.03;4927248;29;20122;-70
2022/07/07 03:39:52;;;;;;;1.17;0.65;;;;;;;22.30;56.80;100822.16;4921014;29;20044;-70
2022/07/07 03:42:21;;;;;;;1.25;0.60;;;;;;;22.24;56.00;100827.56;4926767;29;20611;-70
2022/07/07 03:44:49;;;;;;;2.17;0.63;;;;;;;22.16;56.82;100832.91;4941635;29;20497;-70
2022/07/07 03:47:18;;;;;;;1.25;0.47;;;;;;;22.09;57.19;100833.06;4935908;28;20090;-69
2022/07/07 03:49:46;;;;;;;1.52;0.60;;;;;;;22.03;57.78;100834.00;4921393;29;20052;-69
2022/07/07 03:52:15;;;;;;;2.92;0.57;;;;;;;21.96;58.12;100822.69;4934088;29;20063;-70
2022/07/07 03:54:45;;;;;;;0.50;0.40;;;;;;;21.91;61.01;100824.53;4936380;29;20051;-70
2022/07/07 03:57:13;;;;;;;1.05;0.55;;;;;;;21.85;61.24;100827.31;4937389;29;20048;-69
2022/07/07 03:59:42;;;;;;;0.52;0.35;;;;;;;21.81;60.39;100836.13;4933378;29;20056;-69
2022/07/07 04:02:11;;;;;;;1.50;0.50;;;;;;;21.78;60.35;100830.91;4933661;29;20047;-70
2022/07/07 04:04:39;;;;;;;0.43;0.28;;;;;;;21.74;59.08;100838.00;4933172;29;20052;-70
2022/07/07 04:07:08;;;;;;;1.33;0.70;;;;;;;21.70;61.08;100841.56;4933333;29;20054;-70
2022/07/07 04:09:36;;;;;;;1.38;0.52;;;;;;;21.64;61.90;100851.31;4929108;29;20064;-70
2022/07/07 04:12:08;;;;;;;0.45;0.40;;;;;;;21.56;62.51;100853.22;4933480;29;20490;-69
2022/07/07 04:14:36;;;;;;;1.67;0.50;;;;;;;21.49;61.91;100852.41;4934329;29;20088;-70
2022/07/07 04:17:05;;;;;;;0.88;0.40;;;;;;;21.40;61.77;100845.50;4929319;29;20044;-71
2022/07/07 04:19:34;;;;;;;1.15;0.70;;;;;;;21.33;62.43;100857.00;4929745;29;20107;-71
2022/07/07 04:22:02;;;;;;;3.97;0.40;;;;;;;21.25;65.36;100853.56;4930279;29;20063;-72
2022/07/07 04:24:31;;;;;;;0.93;0.30;;;;;;;21.15;62.95;100865.13;4929986;29;20051;-71
2022/07/07 04:26:59;;;;;;;0.95;0.40;;;;;;;21.06;63.41;100859.06;4929783;29;20055;-72
2022/07/07 04:29:29;;;;;;;1.15;0.40;;;;;;;20.99;63.83;100861.81;4933192;29;20122;-72
2022/07/07 04:31:58;;;;;;;0.95;0.50;;;;;;;20.92;64.29;100866.25;4929791;29;20510;-72
2022/07/07 04:34:26;;;;;;;1.67;0.50;;;;;;;20.86;64.89;100861.06;4928264;29;20096;-71
2022/07/07 04:36:55;;;;;;;4.03;0.70;;;;;;;20.81;65.15;100868.13;4933385;29;20055;-71
2022/07/07 04:39:23;;;;;;;1.75;0.50;;;;;;;20.75;65.33;100868.19;4930264;29;20055;-71
2022/07/07 04:41:52;;;;;;;0.73;0.50;;;;;;;20.66;65.59;100870.06;4928585;28;20055;-71
2022/07/07 04:44:24;;;;;;;1.20;0.60;;;;;;;20.61;65.99;100871.81;4937564;29;20047;-71
2022/07/07 04:46:54;;;;;;;4.03;0.63;;;;;;;20.55;66.58;100876.25;4924528;28;20066;-71
2022/07/07 04:49:23;;;;;;;1.77;0.90;;;;;;;20.48;67.11;100873.69;4929386;29;20059;-71
2022/07/07 04:51:51;;;;;;;2.92;0.68;;;;;;;20.44;68.39;100879.00;4940138;29;20139;-71
2022/07/07 04:54:20;;;;;;;1.20;0.50;;;;;;;20.36;68.51;100876.41;4928653;29;20073;-71
2022/07/07 04:56:49;;;;;;;1.25;0.50;;;;;;;20.23;69.86;100870.41;4931488;29;20122;-71
2022/07/07 04:59:17;;;;;;;1.35;0.55;;;;;;;20.20;71.81;100886.22;4926928;29;20131;-71
2022/07/07 05:01:46;;;;;;;2.30;1.15;;;;;;;20.13;72.48;100888.88;4924013;29;20059;-71
2022/07/07 05:04:16;;;;;;;1.27;0.63;;;;;;;20.06;71.58;100883.66;4929419;29;20111;-72
2022/07/07 05:06:44;;;;;;;3.33;0.75;;;;;;;20.01;72.37;100887.22;4921251;29;20118;-71
2022/07/07 05:09:12;;;;;;;1.95;1.08;;;;;;;19.97;71.62;100890.75;4922053;29;20496;-72
2022/07/07 05:11:41;;;;;;;4.03;0.90;;;;;;;19.91;71.33;100891.69;4929174;29;20054;-71
2022/07/07 05:14:09;;;;;;;1.10;0.80;;;;;;;19.87;71.20;100895.19;4932097;29;20136;-72
2022/07/07 05:16:38;;;;;;;1.42;0.82;;;;;;;19.81;71.41;100892.59;4936086;29;20126;-72
2022/07/07 05:19:09;;;;;;;4.75;0.80;;;;;;;19.76;71.63;100890.00;4932831;29;20090;-71
2022/07/07 05:21:39;;;;;;;1.42;0.68;;;;;;;19.72;71.90;100893.53;4930118;29;20048;-71
2022/07/07 05:24:07;;;;;;;1.33;0.77;;;;;;;19.68;73.26;100899.66;4925788;29;20055;-71
2022/07/07 05:26:36;;;;;;;2.30;0.90;;;;;;;19.63;74.94;100894.44;4931594;29;20147;-71
2022/07/07 05:29:04;;;;;;;2.55;1.10;;;;;;;19.59;76.53;100900.59;4925106;29;20044;-70
2022/07/07 05:31:33;;;;;;;3.85;1.30;;;;;;;19.54;78.38;100905.00;4932794;29;20059;-71
2022/07/07 05:34:08;;;;;;;3.13;1.88;;;;;;;19.46;79.46;100902.38;4927884;29;20495;-71
2022/07/07 05:36:38;;;;;;;2.30;1.10;;;;;;;19.41;78.05;100906.78;4930547;29;20053;-71
2022/07/07 05:39:07;;;;;;;1.25;0.60;;;;;;;19.39;76.96;100905.91;4927282;29;20043;-71
2022/07/07 05:41:35;;;;;;;1.45;0.60;;;;;;;19.37;76.36;100912.91;4931913;29;20050;-71
2022/07/07 05:44:03;;;;;;;1.85;0.52;;;;;;;19.36;76.04;100907.69;4935963;29;20051;-70
2022/07/07 05:46:32;;;;;;;1.63;0.50;;;;;;;19.34;75.85;100912.94;4927565;29;20062;-72
2022/07/07 05:49:00;;;;;;;0.60;0.40;;;;;;;19.32;75.74;100919.94;4932848;28;20059;-71
2022/07/07 05:51:28;;;;;;;1.63;0.47;;;;;;;19.29;75.93;100916.44;4931460;29;20048;-71
2022/07/07 05:53:59;;;;;;;1.25;0.60;;;;;;;19.24;77.60;100919.09;4932027;29;20508;-71
2022/07/07 05:56:27;;;;;;;1.25;0.52;;;;;;;19.21;78.06;100912.09;4930685;29;20050;-71
2022/07/07 05:58:55;;;;;;;0.45;0.30;;;;;;;19.19;77.99;100913.00;4928725;29;20506;-71
2022/07/07 06:01:24;;;;;;;2.17;0.60;;;;;;;19.18;77.07;100912.13;4930664;29;20150;-71
2022/07/07 06:03:52;;;;;;;1.70;0.60;;;;;;;19.17;76.58;100909.50;4927370;29;20182;-71
2022/07/07 06:06:20;;;;;;;1.02;0.60;;;;;;;19.14;75.77;100914.75;4922004;29;20056;-70
2022/07/07 06:08:49;;;;;;;1.55;0.77;;;;;;;19.11;75.95;100909.53;4924488;29;20099;-70
2022/07/07 06:11:19;;;;;;;1.00;0.40;;;;;;;19.09;75.97;100913.91;4938307;29;20071;-71
2022/07/07 06:13:47;;;;;;;0.80;0.50;;;;;;;19.09;76.07;100913.91;4934439;29;20043;-71
2022/07/07 06:16:16;;;;;;;0.60;0.47;;;;;;;19.05;75.96;100911.28;4938166;29;20043;-71
2022/07/07 06:18:44;;;;;;;1.05;0.50;;;;;;;19.04;76.18;100912.16;4931009;29;20138;-71
2022/07/07 06:21:12;;;;;;;1.13;0.50;;;;;;;19.01;76.25;100901.69;4930820;29;20035;-71
2022/07/07 06:23:40;;;;;;;3.25;0.60;;;;;;;18.97;78.51;100905.19;4928148;29;20050;-71
2022/07/07 06:26:09;;;;;;;1.50;0.40;;;;;;;18.89;80.03;100908.72;4927199;29;20494;-71
2022/07/07 06:28:39;;;;;;;0.77;0.40;;;;;;;18.86;80.85;100901.72;4925318;29;20058;-71
2022/07/07 06:31:07;;;;;;;0.60;0.40;;;;;;;18.82;80.47;100902.59;4925391;29;20058;-71
2022/07/07 06:33:35;;;;;;;1.73;0.45;;;;;;;18.79;83.55;100900.88;4927922;29;20482;-71
2022/07/07 06:36:04;;;;;;;1.17;0.40;;;;;;;18.77;82.09;100902.63;4927625;29;20103;-71
2022/07/07 06:38:32;;;;;;;0.98;0.40;;;;;;;18.75;82.42;100906.09;4928115;29;20098;-71
2022/07/07 06:41:01;;;;;;;7.38;0.70;;;;;;;18.73;82.44;100905.22;4932938;29;20047;-71
2022/07/07 06:43:29;;;;;;;1.98;0.47;;;;;;;18.70;83.30;100897.38;4938163;29;20126;-70
2022/07/07 06:45:59;;;;;;;1.10;0.52;;;;;;;18.69;82.46;100913.94;4933455;29;20106;-71
2022/07/07 06:48:28;;;;;;;1.50;0.93;;;;;;;18.67;81.35;100907.84;4930727;28;20074;-71
2022/07/07 06:50:56;;;;;;;0.50;0.30;;;;;;;18.63;80.53;100912.22;4928196;29;20053;-71
2022/07/07 06:53:25;;;;;;;3.97;0.70;;;;;;;18.61;81.54;100904.34;4927696;29;20128;-71
2022/07/07 06:55:53;;;;;;;2.83;0.50;;;;;;;18.57;81.20;100902.59;4927891;29;20047;-71
2022/07/07 06:58:21;;;;;;;1.45;0.50;;;;;;;18.54;80.42;100902.63;4929815;29;20056;-71
2022/07/07 07:00:50;;;;;;;0.75;0.40;;;;;;;18.52;80.13;100900.88;4934407;29;20058;-72
2022/07/07 07:03:20;;;;;;;1.40;0.60;;;;;;;18.49;79.69;100908.75;4932587;29;20035;-72
2022/07/07 07:05:48;;;;;;;4.22;0.40;;;;;;;18.46;81.60;100913.97;4934514;29;20083;-72
2022/07/07 07:08:17;;;;;;;1.52;0.52;;;;;;;18.38;83.61;100912.22;4928744;29;20134;-72
2022/07/07 07:10:45;;;;;;;3.53;1.58;;;;;;;18.30;83.56;100923.56;4928551;29;20062;-72
2022/07/07 07:13:13;;;;;;;2.67;0.60;;;;;;;18.27;83.29;100931.44;4925257;29;20126;-71
2022/07/07 07:15:42;;;;;;;1.48;0.68;;;;;;;18.24;83.50;100927.06;4928815;29;20556;-71
2022/07/07 07:18:10;;;;;;;1.98;0.65;;;;;;;18.25;83.23;100930.56;4931625;29;20043;-71
2022/07/07 07:20:41;;;;;;;1.10;0.40;;;;;;;18.21;83.08;100921.84;4930066;29;20043;-71
2022/07/07 07:23:09;;;;;;;1.83;0.40;;;;;;;18.18;82.48;100924.44;4929265;29;20693;-71
2022/07/07 07:25:37;;;;;;;5.75;0.60;;;;;;;18.15;82.38;100930.56;4933619;29;20075;-71
2022/07/07 07:28:06;;;;;;;0.40;0.40;;;;;;;18.11;83.60;100939.28;4933765;29;20050;-71
2022/07/07 07:30:35;;;;;;;1.90;0.60;;;;;;;18.08;84.39;100936.66;4934248;29;20040;-71
2022/07/07 07:33:03;;;;;;;4.00;0.88;;;;;;;18.06;84.36;100935.78;4932444;29;20044;-71
2022/07/07 07:35:31;;;;;;;0.60;0.40;;;;;;;18.04;84.04;100929.66;4937929;29;20135;-71
2022/07/07 07:38:01;;;;;;;0.88;0.40;;;;;;;18.03;84.15;100935.78;4931787;29;20052;-71
2022/07/07 07:40:30;;;;;;;0.82;0.43;;;;;;;18.02;83.96;100934.03;4925362;29;20044;-70
2022/07/07 07:42:58;;;;;;;2.13;0.50;;;;;;;18.01;84.26;100940.16;4927432;29;20150;-71
2022/07/07 07:45:26;;;;;;;0.88;0.50;;;;;;;18.01;84.20;100942.75;4920843;29;20131;-71
2022/07/07 07:47:56;;;;;;;3.97;0.85;;;;;;;17.97;83.89;100938.38;4927474;28;20106;-71
2022/07/07 07:50:25;;;;;;;1.70;0.60;;;;;;;17.94;84.45;100933.16;4936315;29;20039;-71
2022/07/07 07:52:53;;;;;;;2.28;0.70;;;;;;;17.92;84.58;100925.28;4932786;29;20071;-71
2022/07/07 07:55:23;;;;;;;0.60;0.40;;;;;;;17.92;85.11;100932.28;4917974;29;20044;-70
2022/07/07 07:57:52;;;;;;;1.05;0.70;;;;;;;17.90;85.52;100934.00;4918924;29;20115;-71
2022/07/07 08:00:23;;;;;;;2.58;0.90;;;;;;;17.89;85.88;100940.09;4926671;29;20072;-71
2022/07/07 08:02:51;;;;;;;0.93;0.50;;;;;;;17.89;86.16;100934.84;4929281;29;20067;-71
2022/07/07 08:05:20;;;;;;;2.15;0.80;;;;;;;17.88;87.04;100935.75;4919467;29;20131;-71
2022/07/07 08:07:49;;;;;;;0.80;0.50;;;;;;;17.89;87.20;100938.38;4920204;29;20052;-71
2022/07/07 08:10:18;;;;;;;3.80;0.60;;;;;;;17.89;88.94;100943.63;4928230;28;20048;-71
2022/07/07 08:12:49;;;;;;;1.98;0.70;;;;;;;17.84;92.89;100947.06;4936668;29;20134;-71
2022/07/07 08:15:18;;;;;;;3.53;0.65;;;;;;;17.78;91.67;100940.94;4934007;29;20050;-72
2022/07/07 08:17:48;;;;;;;2.28;0.50;;;;;;;17.79;92.26;100944.41;4932840;29;20118;-71
2022/07/07 08:20:17;;;;;;;1.25;0.40;;;;;;;17.79;92.82;100942.66;4927342;29;20062;-72
2022/07/07 08:22:45;;;;;;;1.73;0.50;;;;;;;17.82;91.57;100941.84;4927824;29;20131;-71
2022/07/07 08:25:14;;;;;;;1.55;0.50;;;;;;;17.84;91.16;100945.31;4925748;29;20047;-71
2022/07/07 08:27:42;;;;;;;2.28;0.60;;;;;;;17.85;90.92;100947.09;4921418;29;20064;-71
2022/07/07 08:30:12;;;;;;;1.52;0.80;;;;;;;17.86;91.24;100953.19;4925017;29;20075;-71
2022/07/07 08:32:43;;;;;;;1.33;0.45;;;;;;;17.87;91.36;100947.09;4927296;29;20070;-70
2022/07/07 08:35:12;;;;;;;1.08;0.50;;;;;;;17.88;90.48;100949.69;4924086;29;20525;-72
2022/07/07 08:37:41;;;;;;;1.15;0.63;;;;;;;17.91;89.84;100946.22;4926657;29;20071;-71
2022/07/07 08:40:11;;;;;;;1.40;0.40;;;;;;;17.93;88.90;100941.84;4931012;29;20083;-71
2022/07/07 08:42:39;;;;;;;1.65;0.60;;;;;;;17.96;89.17;100944.50;4926787;29;20487;-71
2022/07/07 08:45:08;;;;;;;2.05;1.85;;;;;;;17.98;89.99;100947.97;4937120;29;20047;-70
2022/07/07 08:47:38;;;;;;;1.60;0.70;;;;;;;17.98;90.60;100950.59;4934240;28;20098;-71
2022/07/07 08:50:08;;;;;;;1.08;0.57;;;;;;;17.94;92.35;100947.09;4928970;29;20488;-72
2022/07/07 08:52:36;;;;;;;1.30;0.50;;;;;;;17.89;92.63;100947.94;4930515;29;20146;-71
2022/07/07 08:55:05;;;;;;;1.25;0.70;;;;;;;17.85;94.12;100956.69;4933419;29;20090;-71
2022/07/07 08:57:34;;;;;;;2.72;0.60;;;;;;;17.79;95.06;100950.50;4933094;29;20052;-72
2022/07/07 09:00:02;;;;;;;3.95;0.70;;;;;;;17.74;94.29;100957.47;4932457;29;20146;-72
2022/07/07 09:02:31;;;;;;;2.38;0.80;;;;;;;17.76;94.25;100958.38;4930933;29;20131;-71
2022/07/07 09:05:01;;;;;;;2.05;0.63;;;;;;;17.76;93.30;100953.13;4933194;29;20043;-71
2022/07/07 09:07:48;;;;;;;1.00;0.63;;;;;;;17.76;92.60;100955.75;4927555;29;20060;-72
2022/07/07 09:10:30;;;;;;;1.58;0.68;;;;;;;17.75;92.99;100955.72;4940900;29;20048;-72
2022/07/07 09:12:58;;;;;;;3.20;0.63;;;;;;;17.71;95.34;100959.22;4929923;29;20051;-72
2022/07/07 09:15:27;;;;;;;3.53;0.50;;;;;;;17.67;95.54;100963.56;4928996;29;20044;-71
2022/07/07 09:17:55;;;;;;;0.60;0.50;;;;;;;17.67;94.37;100963.56;4932050;29;20522;-71
2022/07/07 09:20:25;;;;;;;1.40;0.63;;;;;;;17.67;95.35;100963.56;4930760;29;20054;-72
2022/07/07 09:22:55;;;;;;;1.48;0.50;;;;;;;17.62;94.58;100967.06;4944289;29;20560;-71
2022/07/07 09:25:25;;;;;;;5.47;0.75;;;;;;;17.60;95.44;100969.66;4932676;29;20099;-71
2022/07/07 09:27:57;;;;;;;2.70;0.60;;;;;;;17.59;95.98;100967.88;4932215;29;20130;-71
2022/07/07 09:30:31;;;;;;;0.82;0.57;;;;;;;17.58;94.93;100967.00;4933033;29;20574;-71
2022/07/07 09:33:01;;;;;;;2.85;0.70;;;;;;;17.57;95.99;100967.03;4931627;29;20118;-72
2022/07/07 09:38:22;;;;;;;1.70;0.68;;;;;;;17.55;94.32;100963.53;4926948;29;20051;-71
2022/07/07 09:40:55;;;;;;;3.50;1.00;;;;;;;17.53;94.36;100966.13;4926695;29;20063;-71
2022/07/07 09:43:24;;;;;;;2.63;0.68;;;;;;;17.51;95.34;100972.22;4929386;29;20058;-71
2022/07/07 09:46:14;;;;;;;2.17;0.50;;;;;;;17.50;95.17;100975.69;4943853;29;20043;-71
2022/07/07 09:48:44;;;;;;;0.63;0.40;;;;;;;17.53;95.34;100976.59;4934311;28;20063;-71
2022/07/07 09:51:20;;;;;;;0.85;0.60;;;;;;;17.55;94.47;100976.63;4931199;29;20050;-72
2022/07/07 09:53:59;;;;;;;0.55;0.50;;;;;;;17.58;94.84;100979.22;4933554;29;20050;-72
2022/07/07 09:56:29;;;;;;;3.92;0.90;;;;;;;17.58;94.79;100979.22;4924896;29;20134;-72
2022/07/07 09:58:58;;;;;;;2.67;0.70;;;;;;;17.55;95.54;100979.22;4931273;29;20135;-73
2022/07/07 10:01:29;;;;;;;1.13;0.80;;;;;;;17.53;95.80;100987.06;4932761;29;20122;-72
2022/07/07 10:03:59;;;;;;;0.80;0.60;;;;;;;17.54;95.63;100988.78;4931612;29;20059;-72
2022/07/07 10:06:31;;;;;;;0.60;0.60;;;;;;;17.56;95.17;100980.97;4925029;29;20044;-72
2022/07/07 10:09:02;;;;;;;1.83;0.88;;;;;;;17.52;95.66;100977.47;4920746;29;20082;-71
2022/07/07 10:11:40;;;;;;;1.13;0.70;;;;;;;17.60;95.01;100982.72;4917004;29;20045;-71
2022/07/07 10:14:15;;;;;;;3.13;0.60;;;;;;;17.61;95.21;100979.22;4931804;29;20135;-72
2022/07/07 10:16:45;;;;;;;2.25;0.60;;;;;;;17.61;95.29;100989.69;4924595;29;20048;-72
2022/07/07 10:19:14;;;;;;;1.63;0.68;;;;;;;17.61;95.16;100984.47;4930844;29;20633;-72
2022/07/07 10:21:47;;;;;;;1.42;0.68;;;;;;;17.61;95.38;100984.47;4931574;29;20051;-72
2022/07/07 10:24:16;;;;;;;;;;;;;;;17.61;94.73;100987.09;4919780;29;20055;-72
2022/07/07 10:26:49;;;;;;;2.47;0.80;;;;;;;17.57;95.00;100987.97;4915275;29;19929;-72
2022/07/07 10:29:18;;;;;;;2.85;0.60;;;;;;;17.54;94.49;100988.78;4917312;29;20040;-72
2022/07/07 10:31:52;;;;;;;2.13;0.70;;;;;;;17.55;94.49;100995.78;4915448;29;20052;-71
2022/07/07 10:34:21;;;;;;;3.22;0.70;;;;;;;17.57;93.88;100995.81;4925148;29;20056;-71
2022/07/07 10:37:05;;;;;;;1.55;0.60;;;;;;;17.58;95.33;100987.09;4916200;29;20052;-72
2022/07/07 10:39:39;;;;;;;3.20;0.77;;;;;;;17.59;96.01;100991.44;4932164;29;20127;-72
2022/07/07 10:42:30;;;;;;;0.88;0.68;;;;;;;17.60;96.22;100993.19;4933353;29;20533;-72
2022/07/07 10:44:59;;;;;;;3.35;0.85;;;;;;;17.59;95.83;100983.59;4931033;29;20070;-72
2022/07/07 10:47:34;;;;;;;2.55;0.70;;;;;;;17.58;96.61;100989.69;4937992;28;20047;-72
2022/07/07 10:50:04;;;;;;;1.95;0.88;;;;;;;17.55;96.33;100989.69;4931418;29;20131;-72
2022/07/07 10:52:43;;;;;;;6.60;0.70;;;;;;;17.52;95.55;100990.56;4940620;29;20507;-72
2022/07/07 10:55:11;;;;;;;2.50;0.80;;;;;;;17.49;95.27;100995.75;4930175;29;20073;-72
2022/07/07 10:57:45;;;;;;;2.53;0.80;;;;;;;17.47;95.91;100994.88;4935578;29;20053;-72
2022/07/07 11:00:18;;;;;;;1.02;0.60;;;;;;;17.43;96.41;100990.50;4936969;29;20069;-72
2022/07/07 11:02:49;;;;;;;3.80;0.80;;;;;;;17.41;96.04;100993.97;4932521;29;20044;-73
2022/07/07 11:05:34;;;;;;;3.03;0.75;;;;;;;17.40;96.41;100997.47;4937481;29;20075;-73
2022/07/07 11:08:14;;;;;;;1.58;0.60;;;;;;;17.38;96.32;100998.34;4932481;29;20052;-73
2022/07/07 11:11:03;;;;;;;3.95;1.02;;;;;;;17.41;96.08;100996.56;4934954;29;20136;-72
2022/07/07 11:13:34;;;;;;;2.50;0.60;;;;;;;17.41;95.33;100993.97;4930042;29;20051;-73
2022/07/07 11:16:15;;;;;;;4.88;1.00;;;;;;;17.40;96.05;101000.06;4937334;29;20083;-72
2022/07/07 11:18:45;;;;;;;6.65;1.05;;;;;;;17.39;94.84;101004.44;4934593;28;20135;-73
2022/07/07 11:21:13;;;;;;;3.60;0.95;;;;;;;17.40;94.91;101000.94;4935095;29;20047;-72
2022/07/07 11:23:50;;;;;;;3.95;0.80;;;;;;;17.38;95.13;101002.66;4935945;29;20549;-73
2022/07/07 11:26:22;;;;;;;3.03;0.85;;;;;;;17.36;96.39;101000.06;4936650;29;20056;-73
2022/07/07 11:28:52;;;;;;;1.77;0.68;;;;;;;17.31;95.75;101003.50;4935550;29;20052;-72
2022/07/07 11:31:20;;;;;;;2.85;0.70;;;;;;;17.27;96.63;100999.13;4936310;29;20127;-71
2022/07/07 11:33:53;;;;;;;2.03;0.90;;;;;;;17.27;96.06;100997.41;4938921;29;20050;-71
2022/07/07 11:36:21;;;;;;;;;;;;;;;17.27;95.58;101001.72;4935448;29;20044;-72
2022/07/07 11:38:54;;;;;;;2.05;0.60;;;;;;;17.27;95.91;100993.88;4937765;28;19937;-72
2022/07/07 11:41:22;;;;;;;1.90;0.70;;;;;;;17.27;96.34;101005.25;4927194;29;20055;-72